Time;durP1;ratioP1;P1;durP2;ratioP2;P2;SDS_P1;SDS_P2;PMS_P1;PMS_P2;Temp;Humidity;BMP_temperature;BMP_pressure;BME280_temperature;BME280_humidity;BME280_pressure;Samples;Min_cycle;Max_cycle;Signal;HPM_P1;HPM_P2
2019/05/26 00:00:14;;;;;;;15.1;13.65;;;;;;;13.23;90.62109;95230.8;;;;
2019/05/26 00:01:15;;;;;;;15.1;13.65;;;;;;;13.23;90.62109;95230.8;;;;
2019/05/26 00:02:16;;;;;;;15.1;13.65;;;;;;;13.23;90.62109;95230.8;;;;
2019/05/26 00:03:17;;;;;;;15.1;13.65;;;;;;;13.23;90.62109;95230.8;;;;
2019/05/26 00:04:18;;;;;;;15.05;13.55;;;;;;;13.17;91.10156;95234.52;;;;
2019/05/26 00:05:20;;;;;;;15.05;13.55;;;;;;;13.17;91.10156;95234.52;;;;
2019/05/26 00:06:21;;;;;;;15.05;13.55;;;;;;;13.17;91.10156;95234.52;;;;
2019/05/26 00:07:22;;;;;;;15.05;13.55;;;;;;;13.17;91.10156;95234.52;;;;
2019/05/26 00:08:23;;;;;;;15.05;13.55;;;;;;;13.17;91.10156;95234.52;;;;
2019/05/26 00:09:24;;;;;;;15.05;13.55;;;;;;;13.17;91.10156;95234.52;;;;
2019/05/26 00:10:25;;;;;;;15.05;13.55;;;;;;;13.17;91.10156;95234.52;;;;
2019/05/26 00:11:26;;;;;;;15.05;13.55;;;;;;;13.17;91.10156;95234.52;;;;
2019/05/26 00:12:27;;;;;;;15.05;13.55;;;;;;;13.17;91.10156;95234.52;;;;
2019/05/26 00:13:28;;;;;;;15.05;13.55;;;;;;;13.17;91.10156;95234.52;;;;
2019/05/26 00:14:29;;;;;;;15.7;14.1;;;;;;;13.16;91.35645;95227.87;;;;
2019/05/26 00:15:30;;;;;;;15.7;14.1;;;;;;;13.16;91.35645;95227.87;;;;
2019/05/26 00:16:31;;;;;;;15.7;14.1;;;;;;;13.16;91.35645;95227.87;;;;
2019/05/26 00:17:32;;;;;;;15.7;14.1;;;;;;;13.16;91.35645;95227.87;;;;
2019/05/26 00:18:34;;;;;;;15.7;14.1;;;;;;;13.16;91.35645;95227.87;;;;
2019/05/26 00:19:35;;;;;;;15.7;14.1;;;;;;;13.16;91.35645;95227.87;;;;
2019/05/26 00:20:36;;;;;;;15.7;14.1;;;;;;;13.16;91.35645;95227.87;;;;
2019/05/26 00:21:37;;;;;;;15.7;14.1;;;;;;;13.16;91.35645;95227.87;;;;
2019/05/26 00:22:38;;;;;;;15.7;14.1;;;;;;;13.16;91.35645;95227.87;;;;
2019/05/26 00:23:39;;;;;;;15.7;14.1;;;;;;;13.16;91.35645;95227.87;;;;
2019/05/26 00:24:40;;;;;;;14.6;13.05;;;;;;;13.08;91.71387;95222.89;;;;
2019/05/26 00:25:41;;;;;;;14.6;13.05;;;;;;;13.08;91.71387;95222.89;;;;
2019/05/26 00:26:42;;;;;;;14.6;13.05;;;;;;;13.08;91.71387;95222.89;;;;
2019/05/26 00:27:43;;;;;;;14.6;13.05;;;;;;;13.08;91.71387;95222.89;;;;
2019/05/26 00:28:44;;;;;;;14.6;13.05;;;;;;;13.08;91.71387;95222.89;;;;
2019/05/26 00:29:45;;;;;;;14.6;13.05;;;;;;;13.08;91.71387;95222.89;;;;
2019/05/26 00:30:46;;;;;;;14.6;13.05;;;;;;;13.08;91.71387;95222.89;;;;
2019/05/26 00:31:48;;;;;;;14.6;13.05;;;;;;;13.08;91.71387;95222.89;;;;
2019/05/26 00:32:49;;;;;;;14.6;13.05;;;;;;;13.08;91.71387;95222.89;;;;
2019/05/26 00:33:50;;;;;;;14.6;13.05;;;;;;;13.08;91.71387;95222.89;;;;
2019/05/26 00:34:51;;;;;;;14.6;13.05;;;;;;;13.08;91.71387;95222.89;;;;
2019/05/26 00:35:52;;;;;;;15.35;13.9;;;;;;;13.03;92.31445;95202.5;;;;
2019/05/26 00:36:53;;;;;;;15.35;13.9;;;;;;;13.03;92.31445;95202.5;;;;
2019/05/26 00:37:54;;;;;;;15.35;13.9;;;;;;;13.03;92.31445;95202.5;;;;
2019/05/26 00:38:55;;;;;;;15.35;13.9;;;;;;;13.03;92.31445;95202.5;;;;
2019/05/26 00:39:56;;;;;;;15.35;13.9;;;;;;;13.03;92.31445;95202.5;;;;
2019/05/26 00:40:57;;;;;;;15.35;13.9;;;;;;;13.03;92.31445;95202.5;;;;
2019/05/26 00:41:58;;;;;;;15.35;13.9;;;;;;;13.03;92.31445;95202.5;;;;
2019/05/26 00:42:59;;;;;;;15.35;13.9;;;;;;;13.03;92.31445;95202.5;;;;
2019/05/26 00:44:00;;;;;;;15.35;13.9;;;;;;;13.03;92.31445;95202.5;;;;
2019/05/26 00:45:01;;;;;;;15.35;13.9;;;;;;;13.03;92.31445;95202.5;;;;
2019/05/26 00:46:03;;;;;;;13.4;12.05;;;;;;;12.9;92.66113;95203.26;;;;
2019/05/26 00:47:04;;;;;;;13.4;12.05;;;;;;;12.9;92.66113;95203.26;;;;
2019/05/26 00:48:05;;;;;;;13.4;12.05;;;;;;;12.9;92.66113;95203.26;;;;
2019/05/26 00:49:06;;;;;;;13.4;12.05;;;;;;;12.9;92.66113;95203.26;;;;
2019/05/26 00:50:07;;;;;;;13.4;12.05;;;;;;;12.9;92.66113;95203.26;;;;
2019/05/26 00:51:08;;;;;;;13.4;12.05;;;;;;;12.9;92.66113;95203.26;;;;
2019/05/26 00:52:09;;;;;;;13.4;12.05;;;;;;;12.9;92.66113;95203.26;;;;
2019/05/26 00:53:10;;;;;;;13.4;12.05;;;;;;;12.9;92.66113;95203.26;;;;
2019/05/26 00:54:11;;;;;;;13.4;12.05;;;;;;;12.9;92.66113;95203.26;;;;
2019/05/26 00:55:12;;;;;;;13.4;12.05;;;;;;;12.9;92.66113;95203.26;;;;
2019/05/26 00:56:13;;;;;;;13.4;12.05;;;;;;;12.9;92.66113;95203.26;;;;
2019/05/26 00:57:14;;;;;;;13.65;12.25;;;;;;;12.84;93.22461;95192.21;;;;
2019/05/26 00:58:15;;;;;;;13.65;12.25;;;;;;;12.84;93.22461;95192.21;;;;
2019/05/26 00:59:16;;;;;;;13.65;12.25;;;;;;;12.84;93.22461;95192.21;;;;
2019/05/26 01:00:18;;;;;;;13.65;12.25;;;;;;;12.84;93.22461;95192.21;;;;
2019/05/26 01:01:37;;;;;;;13.65;12.25;;;;;;;12.84;93.22461;95192.21;;;;
2019/05/26 01:02:38;;;;;;;13.65;12.25;;;;;;;12.84;93.22461;95192.21;;;;
2019/05/26 01:03:39;;;;;;;13.65;12.25;;;;;;;12.84;93.22461;95192.21;;;;
2019/05/26 01:04:40;;;;;;;13.65;12.25;;;;;;;12.84;93.22461;95192.21;;;;
2019/05/26 01:05:41;;;;;;;13.65;12.25;;;;;;;12.84;93.22461;95192.21;;;;
2019/05/26 01:06:43;;;;;;;13.65;12.25;;;;;;;12.84;93.22461;95192.21;;;;
2019/05/26 01:07:44;;;;;;;12.55;11.2;;;;;;;12.71;93.44434;95195.17;;;;
2019/05/26 01:08:45;;;;;;;12.55;11.2;;;;;;;12.71;93.44434;95195.17;;;;
2019/05/26 01:09:46;;;;;;;12.55;11.2;;;;;;;12.71;93.44434;95195.17;;;;
2019/05/26 01:10:48;;;;;;;12.55;11.2;;;;;;;12.71;93.44434;95195.17;;;;
2019/05/26 01:11:49;;;;;;;12.55;11.2;;;;;;;12.71;93.44434;95195.17;;;;
2019/05/26 01:12:50;;;;;;;12.55;11.2;;;;;;;12.71;93.44434;95195.17;;;;
2019/05/26 01:13:51;;;;;;;12.55;11.2;;;;;;;12.71;93.44434;95195.17;;;;
2019/05/26 01:14:52;;;;;;;12.55;11.2;;;;;;;12.71;93.44434;95195.17;;;;
2019/05/26 01:15:53;;;;;;;12.55;11.2;;;;;;;12.71;93.44434;95195.17;;;;
2019/05/26 01:16:55;;;;;;;12.55;11.2;;;;;;;12.71;93.44434;95195.17;;;;
2019/05/26 01:17:56;;;;;;;12.25;11.1;;;;;;;12.71;93.77637;95200.17;;;;
2019/05/26 01:18:57;;;;;;;12.25;11.1;;;;;;;12.71;93.77637;95200.17;;;;
2019/05/26 01:19:58;;;;;;;12.25;11.1;;;;;;;12.71;93.77637;95200.17;;;;
2019/05/26 01:20:59;;;;;;;12.25;11.1;;;;;;;12.71;93.77637;95200.17;;;;
2019/05/26 01:22:01;;;;;;;12.25;11.1;;;;;;;12.71;93.77637;95200.17;;;;
2019/05/26 01:23:02;;;;;;;12.25;11.1;;;;;;;12.71;93.77637;95200.17;;;;
2019/05/26 01:24:03;;;;;;;12.25;11.1;;;;;;;12.71;93.77637;95200.17;;;;
2019/05/26 01:25:04;;;;;;;12.25;11.1;;;;;;;12.71;93.77637;95200.17;;;;
2019/05/26 01:26:06;;;;;;;12.25;11.1;;;;;;;12.71;93.77637;95200.17;;;;
2019/05/26 01:27:07;;;;;;;12.25;11.1;;;;;;;12.71;93.77637;95200.17;;;;
2019/05/26 01:28:08;;;;;;;11;9.999999;;;;;;;12.65;93.96484;95193.59;;;;
2019/05/26 01:29:09;;;;;;;11;9.999999;;;;;;;12.65;93.96484;95193.59;;;;
2019/05/26 01:30:10;;;;;;;11;9.999999;;;;;;;12.65;93.96484;95193.59;;;;
2019/05/26 01:31:12;;;;;;;11;9.999999;;;;;;;12.65;93.96484;95193.59;;;;
2019/05/26 01:32:13;;;;;;;11;9.999999;;;;;;;12.65;93.96484;95193.59;;;;
2019/05/26 01:33:14;;;;;;;11;9.999999;;;;;;;12.65;93.96484;95193.59;;;;
2019/05/26 01:34:15;;;;;;;11;9.999999;;;;;;;12.65;93.96484;95193.59;;;;
2019/05/26 01:35:16;;;;;;;11;9.999999;;;;;;;12.65;93.96484;95193.59;;;;
2019/05/26 01:36:18;;;;;;;11;9.999999;;;;;;;12.65;93.96484;95193.59;;;;
2019/05/26 01:37:19;;;;;;;11;9.999999;;;;;;;12.65;93.96484;95193.59;;;;
2019/05/26 01:38:20;;;;;;;11;9.999999;;;;;;;12.65;93.96484;95193.59;;;;
2019/05/26 01:39:21;;;;;;;11.1;9.85;;;;;;;12.65;94.24316;95202.1;;;;
2019/05/26 01:40:22;;;;;;;11.1;9.85;;;;;;;12.65;94.24316;95202.1;;;;
2019/05/26 01:41:42;;;;;;;11.1;9.85;;;;;;;12.65;94.24316;95202.1;;;;
2019/05/26 01:42:43;;;;;;;11.1;9.85;;;;;;;12.65;94.24316;95202.1;;;;
2019/05/26 01:43:44;;;;;;;11.1;9.85;;;;;;;12.65;94.24316;95202.1;;;;
2019/05/26 01:44:45;;;;;;;11.1;9.85;;;;;;;12.65;94.24316;95202.1;;;;
2019/05/26 01:45:46;;;;;;;11.1;9.85;;;;;;;12.65;94.24316;95202.1;;;;
2019/05/26 01:46:47;;;;;;;11.1;9.85;;;;;;;12.65;94.24316;95202.1;;;;
2019/05/26 01:47:48;;;;;;;11.1;9.85;;;;;;;12.65;94.24316;95202.1;;;;
2019/05/26 01:48:49;;;;;;;11.1;9.85;;;;;;;12.65;94.24316;95202.1;;;;
2019/05/26 01:49:51;;;;;;;10.45;9.349999;;;;;;;12.6;94.43652;95194.33;;;;
2019/05/26 01:50:52;;;;;;;10.45;9.349999;;;;;;;12.6;94.43652;95194.33;;;;
2019/05/26 01:51:53;;;;;;;10.45;9.349999;;;;;;;12.6;94.43652;95194.33;;;;
2019/05/26 01:52:54;;;;;;;10.45;9.349999;;;;;;;12.6;94.43652;95194.33;;;;
2019/05/26 01:53:55;;;;;;;10.45;9.349999;;;;;;;12.6;94.43652;95194.33;;;;
2019/05/26 01:54:57;;;;;;;10.45;9.349999;;;;;;;12.6;94.43652;95194.33;;;;
2019/05/26 01:55:58;;;;;;;10.45;9.349999;;;;;;;12.6;94.43652;95194.33;;;;
2019/05/26 01:56:59;;;;;;;10.45;9.349999;;;;;;;12.6;94.43652;95194.33;;;;
2019/05/26 01:58:01;;;;;;;10.45;9.349999;;;;;;;12.6;94.43652;95194.33;;;;
2019/05/26 01:59:02;;;;;;;10.45;9.349999;;;;;;;12.6;94.43652;95194.33;;;;
2019/05/26 02:00:03;;;;;;;9.700001;8.7;;;;;;;12.62;94.80371;95197.19;;;;
2019/05/26 02:01:04;;;;;;;9.700001;8.7;;;;;;;12.62;94.80371;95197.19;;;;
2019/05/26 02:02:05;;;;;;;9.700001;8.7;;;;;;;12.62;94.80371;95197.19;;;;
2019/05/26 02:03:06;;;;;;;9.700001;8.7;;;;;;;12.62;94.80371;95197.19;;;;
2019/05/26 02:04:07;;;;;;;9.700001;8.7;;;;;;;12.62;94.80371;95197.19;;;;
2019/05/26 02:05:09;;;;;;;9.700001;8.7;;;;;;;12.62;94.80371;95197.19;;;;
2019/05/26 02:06:10;;;;;;;9.700001;8.7;;;;;;;12.62;94.80371;95197.19;;;;
2019/05/26 02:07:11;;;;;;;9.700001;8.7;;;;;;;12.62;94.80371;95197.19;;;;
2019/05/26 02:08:12;;;;;;;9.700001;8.7;;;;;;;12.62;94.80371;95197.19;;;;
2019/05/26 02:09:14;;;;;;;9.700001;8.7;;;;;;;12.62;94.80371;95197.19;;;;
2019/05/26 02:10:15;;;;;;;9.700001;8.7;;;;;;;12.62;94.80371;95197.19;;;;
2019/05/26 02:11:16;;;;;;;8.849999;8.050001;;;;;;;12.55;94.82324;95205.93;;;;
2019/05/26 02:12:17;;;;;;;8.849999;8.050001;;;;;;;12.55;94.82324;95205.93;;;;
2019/05/26 02:13:18;;;;;;;8.849999;8.050001;;;;;;;12.55;94.82324;95205.93;;;;
2019/05/26 02:14:20;;;;;;;8.849999;8.050001;;;;;;;12.55;94.82324;95205.93;;;;
2019/05/26 02:15:21;;;;;;;8.849999;8.050001;;;;;;;12.55;94.82324;95205.93;;;;
2019/05/26 02:16:22;;;;;;;8.849999;8.050001;;;;;;;12.55;94.82324;95205.93;;;;
2019/05/26 02:17:23;;;;;;;8.849999;8.050001;;;;;;;12.55;94.82324;95205.93;;;;
2019/05/26 02:18:24;;;;;;;8.849999;8.050001;;;;;;;12.55;94.82324;95205.93;;;;
2019/05/26 02:19:26;;;;;;;8.849999;8.050001;;;;;;;12.55;94.82324;95205.93;;;;
2019/05/26 02:20:27;;;;;;;8.849999;8.050001;;;;;;;12.55;94.82324;95205.93;;;;
2019/05/26 02:21:28;;;;;;;8.500001;7.700001;;;;;;;12.57;95.17773;95203.91;;;;
2019/05/26 02:22:29;;;;;;;8.500001;7.700001;;;;;;;12.57;95.17773;95203.91;;;;
2019/05/26 02:23:30;;;;;;;8.500001;7.700001;;;;;;;12.57;95.17773;95203.91;;;;
2019/05/26 02:24:31;;;;;;;8.500001;7.700001;;;;;;;12.57;95.17773;95203.91;;;;
2019/05/26 02:25:32;;;;;;;8.500001;7.700001;;;;;;;12.57;95.17773;95203.91;;;;
2019/05/26 02:26:33;;;;;;;8.500001;7.700001;;;;;;;12.57;95.17773;95203.91;;;;
2019/05/26 02:27:35;;;;;;;8.500001;7.700001;;;;;;;12.57;95.17773;95203.91;;;;
2019/05/26 02:28:36;;;;;;;8.500001;7.700001;;;;;;;12.57;95.17773;95203.91;;;;
2019/05/26 02:29:37;;;;;;;8.500001;7.700001;;;;;;;12.57;95.17773;95203.91;;;;
2019/05/26 02:30:38;;;;;;;8.500001;7.700001;;;;;;;12.57;95.17773;95203.91;;;;
2019/05/26 02:31:39;;;;;;;7.8;7.1;;;;;;;12.52;95.23145;95204.64;;;;
2019/05/26 02:32:40;;;;;;;7.8;7.1;;;;;;;12.52;95.23145;95204.64;;;;
2019/05/26 02:33:41;;;;;;;7.8;7.1;;;;;;;12.52;95.23145;95204.64;;;;
2019/05/26 02:34:42;;;;;;;7.8;7.1;;;;;;;12.52;95.23145;95204.64;;;;
2019/05/26 02:35:43;;;;;;;7.8;7.1;;;;;;;12.52;95.23145;95204.64;;;;
2019/05/26 02:36:45;;;;;;;7.8;7.1;;;;;;;12.52;95.23145;95204.64;;;;
2019/05/26 02:37:46;;;;;;;7.8;7.1;;;;;;;12.52;95.23145;95204.64;;;;
2019/05/26 02:38:47;;;;;;;7.8;7.1;;;;;;;12.52;95.23145;95204.64;;;;
2019/05/26 02:39:48;;;;;;;7.8;7.1;;;;;;;12.52;95.23145;95204.64;;;;
2019/05/26 02:40:49;;;;;;;7.8;7.1;;;;;;;12.52;95.23145;95204.64;;;;
2019/05/26 02:41:50;;;;;;;7.8;7.1;;;;;;;12.52;95.23145;95204.64;;;;
2019/05/26 02:42:52;;;;;;;7.45;6.799999;;;;;;;12.53;95.52246;95198.17;;;;
2019/05/26 02:43:53;;;;;;;7.45;6.799999;;;;;;;12.53;95.52246;95198.17;;;;
2019/05/26 02:44:54;;;;;;;7.45;6.799999;;;;;;;12.53;95.52246;95198.17;;;;
2019/05/26 02:45:55;;;;;;;7.45;6.799999;;;;;;;12.53;95.52246;95198.17;;;;
2019/05/26 02:46:56;;;;;;;7.45;6.799999;;;;;;;12.53;95.52246;95198.17;;;;
2019/05/26 02:47:57;;;;;;;7.45;6.799999;;;;;;;12.53;95.52246;95198.17;;;;
2019/05/26 02:48:58;;;;;;;7.45;6.799999;;;;;;;12.53;95.52246;95198.17;;;;
2019/05/26 02:49:59;;;;;;;7.45;6.799999;;;;;;;12.53;95.52246;95198.17;;;;
2019/05/26 02:51:01;;;;;;;7.45;6.799999;;;;;;;12.53;95.52246;95198.17;;;;
2019/05/26 02:52:02;;;;;;;7.45;6.799999;;;;;;;12.53;95.52246;95198.17;;;;
2019/05/26 02:53:03;;;;;;;7.85;7.05;;;;;;;12.47;95.48828;95196.86;;;;
2019/05/26 02:54:04;;;;;;;7.85;7.05;;;;;;;12.47;95.48828;95196.86;;;;
2019/05/26 02:55:05;;;;;;;7.85;7.05;;;;;;;12.47;95.48828;95196.86;;;;
2019/05/26 02:56:07;;;;;;;7.85;7.05;;;;;;;12.47;95.48828;95196.86;;;;
2019/05/26 02:57:08;;;;;;;7.85;7.05;;;;;;;12.47;95.48828;95196.86;;;;
2019/05/26 02:58:09;;;;;;;7.85;7.05;;;;;;;12.47;95.48828;95196.86;;;;
2019/05/26 02:59:10;;;;;;;7.85;7.05;;;;;;;12.47;95.48828;95196.86;;;;
2019/05/26 03:00:11;;;;;;;7.85;7.05;;;;;;;12.47;95.48828;95196.86;;;;
2019/05/26 03:01:13;;;;;;;7.85;7.05;;;;;;;12.47;95.48828;95196.86;;;;
2019/05/26 03:02:14;;;;;;;7.85;7.05;;;;;;;12.47;95.48828;95196.86;;;;
2019/05/26 03:03:15;;;;;;;7.85;7.05;;;;;;;12.47;95.48828;95196.86;;;;
2019/05/26 03:04:16;;;;;;;7.85;7.05;;;;;;;12.47;95.48828;95196.86;;;;
2019/05/26 03:05:17;;;;;;;7.85;7.05;;;;;;;12.47;95.48828;95196.86;;;;
2019/05/26 03:06:18;;;;;;;7.85;7.05;;;;;;;12.47;95.48828;95196.86;;;;
2019/05/26 03:07:20;;;;;;;7.85;7.05;;;;;;;12.47;95.48828;95196.86;;;;
2019/05/26 03:08:22;;;;;;;7.85;7.05;;;;;;;12.47;95.48828;95196.86;;;;
2019/05/26 03:09:23;;;;;;;7.85;7.05;;;;;;;12.47;95.48828;95196.86;;;;
2019/05/26 03:10:24;;;;;;;7.85;7.05;;;;;;;12.47;95.48828;95196.86;;;;
2019/05/26 03:11:25;;;;;;;7.85;7.05;;;;;;;12.47;95.48828;95196.86;;;;
2019/05/26 03:12:26;;;;;;;7.85;7.05;;;;;;;12.47;95.48828;95196.86;;;;
2019/05/26 03:13:27;;;;;;;7.85;7.05;;;;;;;12.47;95.48828;95196.86;;;;
2019/05/26 03:14:28;;;;;;;7.05;6.450001;;;;;;;12.44;95.76855;95196.55;;;;
2019/05/26 03:15:31;;;;;;;7.05;6.450001;;;;;;;12.44;95.76855;95196.55;;;;
2019/05/26 03:16:33;;;;;;;7.05;6.450001;;;;;;;12.44;95.76855;95196.55;;;;
2019/05/26 03:17:35;;;;;;;7.05;6.450001;;;;;;;12.44;95.76855;95196.55;;;;
2019/05/26 03:18:36;;;;;;;7.05;6.450001;;;;;;;12.44;95.76855;95196.55;;;;
2019/05/26 03:19:37;;;;;;;7.05;6.450001;;;;;;;12.44;95.76855;95196.55;;;;
2019/05/26 03:20:39;;;;;;;7.05;6.450001;;;;;;;12.44;95.76855;95196.55;;;;
2019/05/26 03:21:40;;;;;;;7.05;6.450001;;;;;;;12.44;95.76855;95196.55;;;;
2019/05/26 03:22:41;;;;;;;7.05;6.450001;;;;;;;12.44;95.76855;95196.55;;;;
2019/05/26 03:23:42;;;;;;;7.05;6.450001;;;;;;;12.44;95.76855;95196.55;;;;
2019/05/26 03:24:43;;;;;;;6.349999;5.849999;;;;;;;12.46;96.10547;95197.94;;;;
2019/05/26 03:25:44;;;;;;;6.349999;5.849999;;;;;;;12.46;96.10547;95197.94;;;;
2019/05/26 03:26:45;;;;;;;6.349999;5.849999;;;;;;;12.46;96.10547;95197.94;;;;
2019/05/26 03:27:46;;;;;;;6.349999;5.849999;;;;;;;12.46;96.10547;95197.94;;;;
2019/05/26 03:28:48;;;;;;;6.349999;5.849999;;;;;;;12.46;96.10547;95197.94;;;;
2019/05/26 03:29:49;;;;;;;6.349999;5.849999;;;;;;;12.46;96.10547;95197.94;;;;
2019/05/26 03:30:50;;;;;;;6.349999;5.849999;;;;;;;12.46;96.10547;95197.94;;;;
2019/05/26 03:31:51;;;;;;;6.349999;5.849999;;;;;;;12.46;96.10547;95197.94;;;;
2019/05/26 03:32:52;;;;;;;6.349999;5.849999;;;;;;;12.46;96.10547;95197.94;;;;
2019/05/26 03:33:53;;;;;;;6.349999;5.849999;;;;;;;12.46;96.10547;95197.94;;;;
2019/05/26 03:34:54;;;;;;;6.349999;5.849999;;;;;;;12.46;96.10547;95197.94;;;;
2019/05/26 03:35:55;;;;;;;6.550001;5.95;;;;;;;12.44;96.20801;95196.01;;;;
2019/05/26 03:36:56;;;;;;;6.550001;5.95;;;;;;;12.44;96.20801;95196.01;;;;
2019/05/26 03:37:57;;;;;;;6.550001;5.95;;;;;;;12.44;96.20801;95196.01;;;;
2019/05/26 03:38:58;;;;;;;6.550001;5.95;;;;;;;12.44;96.20801;95196.01;;;;
2019/05/26 03:39:59;;;;;;;6.550001;5.95;;;;;;;12.44;96.20801;95196.01;;;;
2019/05/26 03:41:00;;;;;;;6.550001;5.95;;;;;;;12.44;96.20801;95196.01;;;;
2019/05/26 03:42:02;;;;;;;6.550001;5.95;;;;;;;12.44;96.20801;95196.01;;;;
2019/05/26 03:43:03;;;;;;;6.550001;5.95;;;;;;;12.44;96.20801;95196.01;;;;
2019/05/26 03:44:04;;;;;;;6.550001;5.95;;;;;;;12.44;96.20801;95196.01;;;;
2019/05/26 03:45:05;;;;;;;6.550001;5.95;;;;;;;12.44;96.20801;95196.01;;;;
2019/05/26 03:46:06;;;;;;;5.699999;5.199999;;;;;;;12.5;96.2959;95206.76;;;;
2019/05/26 03:47:22;;;;;;;5.699999;5.199999;;;;;;;12.5;96.2959;95206.76;;;;
2019/05/26 03:48:23;;;;;;;5.699999;5.199999;;;;;;;12.5;96.2959;95206.76;;;;
2019/05/26 03:49:24;;;;;;;5.699999;5.199999;;;;;;;12.5;96.2959;95206.76;;;;
2019/05/26 03:50:25;;;;;;;5.699999;5.199999;;;;;;;12.5;96.2959;95206.76;;;;
2019/05/26 03:51:26;;;;;;;5.699999;5.199999;;;;;;;12.5;96.2959;95206.76;;;;
2019/05/26 03:52:28;;;;;;;5.699999;5.199999;;;;;;;12.5;96.2959;95206.76;;;;
2019/05/26 03:53:29;;;;;;;5.699999;5.199999;;;;;;;12.5;96.2959;95206.76;;;;
2019/05/26 03:54:30;;;;;;;5.699999;5.199999;;;;;;;12.5;96.2959;95206.76;;;;
2019/05/26 03:55:31;;;;;;;5.699999;5.199999;;;;;;;12.5;96.2959;95206.76;;;;
2019/05/26 03:56:32;;;;;;;5.750001;5.25;;;;;;;12.51;96.47949;95206.66;;;;
2019/05/26 03:57:33;;;;;;;5.750001;5.25;;;;;;;12.51;96.47949;95206.66;;;;
2019/05/26 03:58:34;;;;;;;5.750001;5.25;;;;;;;12.51;96.47949;95206.66;;;;
2019/05/26 03:59:35;;;;;;;5.750001;5.25;;;;;;;12.51;96.47949;95206.66;;;;
2019/05/26 04:00:36;;;;;;;5.750001;5.25;;;;;;;12.51;96.47949;95206.66;;;;
2019/05/26 04:01:37;;;;;;;5.750001;5.25;;;;;;;12.51;96.47949;95206.66;;;;
2019/05/26 04:02:38;;;;;;;5.750001;5.25;;;;;;;12.51;96.47949;95206.66;;;;
2019/05/26 04:03:39;;;;;;;5.750001;5.25;;;;;;;12.51;96.47949;95206.66;;;;
2019/05/26 04:04:40;;;;;;;5.750001;5.25;;;;;;;12.51;96.47949;95206.66;;;;
2019/05/26 04:05:42;;;;;;;5.750001;5.25;;;;;;;12.51;96.47949;95206.66;;;;
2019/05/26 04:06:43;;;;;;;5.750001;5.25;;;;;;;12.51;96.47949;95206.66;;;;
2019/05/26 04:07:44;;;;;;;5.25;4.8;;;;;;;12.6;96.55078;95214.12;;;;
2019/05/26 04:08:45;;;;;;;5.25;4.8;;;;;;;12.6;96.55078;95214.12;;;;
2019/05/26 04:09:46;;;;;;;5.25;4.8;;;;;;;12.6;96.55078;95214.12;;;;
2019/05/26 04:10:47;;;;;;;5.25;4.8;;;;;;;12.6;96.55078;95214.12;;;;
2019/05/26 04:11:48;;;;;;;5.25;4.8;;;;;;;12.6;96.55078;95214.12;;;;
2019/05/26 04:12:49;;;;;;;5.25;4.8;;;;;;;12.6;96.55078;95214.12;;;;
2019/05/26 04:13:50;;;;;;;5.25;4.8;;;;;;;12.6;96.55078;95214.12;;;;
2019/05/26 04:14:51;;;;;;;5.25;4.8;;;;;;;12.6;96.55078;95214.12;;;;
2019/05/26 04:15:52;;;;;;;5.25;4.8;;;;;;;12.6;96.55078;95214.12;;;;
2019/05/26 04:16:57;;;;;;;5.25;4.8;;;;;;;12.6;96.55078;95214.12;;;;
2019/05/26 04:17:58;;;;;;;5.1;4.649999;;;;;;;12.64;96.32617;95214.43;;;;
2019/05/26 04:18:59;;;;;;;5.1;4.649999;;;;;;;12.64;96.32617;95214.43;;;;
2019/05/26 04:20:00;;;;;;;5.1;4.649999;;;;;;;12.64;96.32617;95214.43;;;;
2019/05/26 04:21:01;;;;;;;5.1;4.649999;;;;;;;12.64;96.32617;95214.43;;;;
2019/05/26 04:22:02;;;;;;;5.1;4.649999;;;;;;;12.64;96.32617;95214.43;;;;
2019/05/26 04:23:03;;;;;;;5.1;4.649999;;;;;;;12.64;96.32617;95214.43;;;;
2019/05/26 04:24:04;;;;;;;5.1;4.649999;;;;;;;12.64;96.32617;95214.43;;;;
2019/05/26 04:25:05;;;;;;;5.1;4.649999;;;;;;;12.64;96.32617;95214.43;;;;
2019/05/26 04:26:06;;;;;;;5.1;4.649999;;;;;;;12.64;96.32617;95214.43;;;;
2019/05/26 04:27:07;;;;;;;5.1;4.649999;;;;;;;12.64;96.32617;95214.43;;;;
2019/05/26 04:28:08;;;;;;;4.95;4.55;;;;;;;12.75;96.42383;95226.64;;;;
2019/05/26 04:29:09;;;;;;;4.95;4.55;;;;;;;12.75;96.42383;95226.64;;;;
2019/05/26 04:30:10;;;;;;;4.95;4.55;;;;;;;12.75;96.42383;95226.64;;;;
2019/05/26 04:31:12;;;;;;;4.95;4.55;;;;;;;12.75;96.42383;95226.64;;;;
2019/05/26 04:32:13;;;;;;;4.95;4.55;;;;;;;12.75;96.42383;95226.64;;;;
2019/05/26 04:33:14;;;;;;;4.95;4.55;;;;;;;12.75;96.42383;95226.64;;;;
2019/05/26 04:34:15;;;;;;;4.95;4.55;;;;;;;12.75;96.42383;95226.64;;;;
2019/05/26 04:35:16;;;;;;;4.95;4.55;;;;;;;12.75;96.42383;95226.64;;;;
2019/05/26 04:36:17;;;;;;;4.95;4.55;;;;;;;12.75;96.42383;95226.64;;;;
2019/05/26 04:37:18;;;;;;;4.95;4.55;;;;;;;12.75;96.42383;95226.64;;;;
2019/05/26 04:38:19;;;;;;;4.95;4.55;;;;;;;12.75;96.42383;95226.64;;;;
2019/05/26 04:39:20;;;;;;;5.099999;4.7;;;;;;;12.77;96.44922;95219.5;;;;
2019/05/26 04:40:21;;;;;;;5.099999;4.7;;;;;;;12.77;96.44922;95219.5;;;;
2019/05/26 04:41:22;;;;;;;5.099999;4.7;;;;;;;12.77;96.44922;95219.5;;;;
2019/05/26 04:42:23;;;;;;;5.099999;4.7;;;;;;;12.77;96.44922;95219.5;;;;
2019/05/26 04:43:24;;;;;;;5.099999;4.7;;;;;;;12.77;96.44922;95219.5;;;;
2019/05/26 04:44:25;;;;;;;5.099999;4.7;;;;;;;12.77;96.44922;95219.5;;;;
2019/05/26 04:45:26;;;;;;;5.099999;4.7;;;;;;;12.77;96.44922;95219.5;;;;
2019/05/26 04:46:28;;;;;;;5.099999;4.7;;;;;;;12.77;96.44922;95219.5;;;;
2019/05/26 04:47:29;;;;;;;5.099999;4.7;;;;;;;12.77;96.44922;95219.5;;;;
2019/05/26 04:48:30;;;;;;;5.099999;4.7;;;;;;;12.77;96.44922;95219.5;;;;
2019/05/26 04:49:31;;;;;;;4.8;4.4;;;;;;;12.88;96.54883;95227.08;;;;
2019/05/26 04:50:32;;;;;;;4.8;4.4;;;;;;;12.88;96.54883;95227.08;;;;
2019/05/26 04:51:33;;;;;;;4.8;4.4;;;;;;;12.88;96.54883;95227.08;;;;
2019/05/26 04:52:34;;;;;;;4.8;4.4;;;;;;;12.88;96.54883;95227.08;;;;
2019/05/26 04:53:35;;;;;;;4.8;4.4;;;;;;;12.88;96.54883;95227.08;;;;
2019/05/26 04:54:36;;;;;;;4.8;4.4;;;;;;;12.88;96.54883;95227.08;;;;
2019/05/26 04:55:37;;;;;;;4.8;4.4;;;;;;;12.88;96.54883;95227.08;;;;
2019/05/26 04:56:38;;;;;;;4.8;4.4;;;;;;;12.88;96.54883;95227.08;;;;
2019/05/26 04:57:39;;;;;;;4.8;4.4;;;;;;;12.88;96.54883;95227.08;;;;
2019/05/26 04:58:41;;;;;;;4.8;4.4;;;;;;;12.88;96.54883;95227.08;;;;
2019/05/26 04:59:42;;;;;;;4.8;4.4;;;;;;;12.88;96.54883;95227.08;;;;
2019/05/26 05:00:43;;;;;;;4.8;4.4;;;;;;;12.88;96.54883;95227.08;;;;
2019/05/26 05:01:44;;;;;;;4.8;4.4;;;;;;;12.88;96.54883;95227.08;;;;
2019/05/26 05:02:45;;;;;;;4.8;4.4;;;;;;;12.88;96.54883;95227.08;;;;
2019/05/26 05:03:46;;;;;;;4.8;4.4;;;;;;;12.88;96.54883;95227.08;;;;
2019/05/26 05:04:47;;;;;;;4.8;4.4;;;;;;;12.88;96.54883;95227.08;;;;
2019/05/26 05:05:48;;;;;;;4.8;4.4;;;;;;;12.88;96.54883;95227.08;;;;
2019/05/26 05:06:49;;;;;;;4.8;4.4;;;;;;;12.88;96.54883;95227.08;;;;
2019/05/26 05:07:50;;;;;;;4.8;4.4;;;;;;;12.88;96.54883;95227.08;;;;
2019/05/26 05:08:51;;;;;;;4.8;4.4;;;;;;;12.88;96.54883;95227.08;;;;
2019/05/26 05:09:52;;;;;;;4.8;4.4;;;;;;;12.88;96.54883;95227.08;;;;
2019/05/26 05:10:53;;;;;;;4.099999;3.8;;;;;;;13.2;96.58691;95236.74;;;;
2019/05/26 05:11:54;;;;;;;4.099999;3.8;;;;;;;13.2;96.58691;95236.74;;;;
2019/05/26 05:12:55;;;;;;;4.099999;3.8;;;;;;;13.2;96.58691;95236.74;;;;
2019/05/26 05:13:57;;;;;;;4.099999;3.8;;;;;;;13.2;96.58691;95236.74;;;;
2019/05/26 05:14:58;;;;;;;4.099999;3.8;;;;;;;13.2;96.58691;95236.74;;;;
2019/05/26 05:15:59;;;;;;;4.099999;3.8;;;;;;;13.2;96.58691;95236.74;;;;
2019/05/26 05:17:00;;;;;;;4.099999;3.8;;;;;;;13.2;96.58691;95236.74;;;;
2019/05/26 05:18:01;;;;;;;4.099999;3.8;;;;;;;13.2;96.58691;95236.74;;;;
2019/05/26 05:19:02;;;;;;;4.099999;3.8;;;;;;;13.2;96.58691;95236.74;;;;
2019/05/26 05:20:03;;;;;;;4.099999;3.8;;;;;;;13.2;96.58691;95236.74;;;;
2019/05/26 05:21:04;;;;;;;4;3.65;;;;;;;13.32;96.4082;95237;;;;
2019/05/26 05:22:06;;;;;;;4;3.65;;;;;;;13.32;96.4082;95237;;;;
2019/05/26 05:23:07;;;;;;;4;3.65;;;;;;;13.32;96.4082;95237;;;;
2019/05/26 05:24:08;;;;;;;4;3.65;;;;;;;13.32;96.4082;95237;;;;
2019/05/26 05:25:09;;;;;;;4;3.65;;;;;;;13.32;96.4082;95237;;;;
2019/05/26 05:26:10;;;;;;;4;3.65;;;;;;;13.32;96.4082;95237;;;;
2019/05/26 05:27:11;;;;;;;4;3.65;;;;;;;13.32;96.4082;95237;;;;
2019/05/26 05:28:12;;;;;;;4;3.65;;;;;;;13.32;96.4082;95237;;;;
2019/05/26 05:29:13;;;;;;;4;3.65;;;;;;;13.32;96.4082;95237;;;;
2019/05/26 05:30:14;;;;;;;4;3.65;;;;;;;13.32;96.4082;95237;;;;
2019/05/26 05:31:16;;;;;;;4;3.65;;;;;;;13.32;96.4082;95237;;;;
2019/05/26 05:32:17;;;;;;;3.8;3.400001;;;;;;;13.53;96.35938;95235.61;;;;
2019/05/26 05:33:18;;;;;;;3.8;3.400001;;;;;;;13.53;96.35938;95235.61;;;;
2019/05/26 05:34:19;;;;;;;3.8;3.400001;;;;;;;13.53;96.35938;95235.61;;;;
2019/05/26 05:35:20;;;;;;;3.8;3.400001;;;;;;;13.53;96.35938;95235.61;;;;
2019/05/26 05:36:21;;;;;;;3.8;3.400001;;;;;;;13.53;96.35938;95235.61;;;;
2019/05/26 05:37:22;;;;;;;3.8;3.400001;;;;;;;13.53;96.35938;95235.61;;;;